sensor_id;sensor_type;location;lat;lon;timestamp;temperature;humidity
13992;DHT22;7070;53.586;9.692;2023-02-28T00:00:31;5.40;77.90
13992;DHT22;7070;53.586;9.692;2023-02-28T00:02:58;5.30;77.80
13992;DHT22;7070;53.586;9.692;2023-02-28T00:05:26;5.40;77.80
13992;DHT22;7070;53.586;9.692;2023-02-28T00:07:53;5.40;77.70
13992;DHT22;7070;53.586;9.692;2023-02-28T00:10:24;5.40;77.70
13992;DHT22;7070;53.586;9.692;2023-02-28T00:12:53;5.30;77.40
13992;DHT22;7070;53.586;9.692;2023-02-28T00:15:23;5.30;77.40
13992;DHT22;7070;53.586;9.692;2023-02-28T00:17:50;5.40;77.50
13992;DHT22;7070;53.586;9.692;2023-02-28T00:20:18;5.30;77.30
13992;DHT22;7070;53.586;9.692;2023-02-28T00:22:46;5.30;77.10
13992;DHT22;7070;53.586;9.692;2023-02-28T00:25:15;5.30;77.20
13992;DHT22;7070;53.586;9.692;2023-02-28T00:27:43;5.30;77.00
13992;DHT22;7070;53.586;9.692;2023-02-28T00:30:12;5.30;76.90
13992;DHT22;7070;53.586;9.692;2023-02-28T00:32:41;5.30;76.90
13992;DHT22;7070;53.586;9.692;2023-02-28T00:35:09;5.30;76.80
13992;DHT22;7070;53.586;9.692;2023-02-28T00:37:36;5.30;76.80
13992;DHT22;7070;53.586;9.692;2023-02-28T00:40:03;5.30;76.70
13992;DHT22;7070;53.586;9.692;2023-02-28T00:42:31;5.20;76.60
13992;DHT22;7070;53.586;9.692;2023-02-28T00:44:58;5.20;76.60
13992;DHT22;7070;53.586;9.692;2023-02-28T00:47:25;5.30;76.60
13992;DHT22;7070;53.586;9.692;2023-02-28T00:49:54;5.30;76.60
13992;DHT22;7070;53.586;9.692;2023-02-28T00:52:20;5.30;76.60
13992;DHT22;7070;53.586;9.692;2023-02-28T00:54:47;5.30;76.60
13992;DHT22;7070;53.586;9.692;2023-02-28T00:57:14;5.20;76.40
13992;DHT22;7070;53.586;9.692;2023-02-28T00:59:41;5.30;76.40
13992;DHT22;7070;53.586;9.692;2023-02-28T01:02:08;5.30;76.50
13992;DHT22;7070;53.586;9.692;2023-02-28T01:04:35;5.30;76.40
13992;DHT22;7070;53.586;9.692;2023-02-28T01:07:03;5.20;76.30
13992;DHT22;7070;53.586;9.692;2023-02-28T01:09:30;5.20;76.30
13992;DHT22;7070;53.586;9.692;2023-02-28T01:11:57;5.20;76.30
13992;DHT22;7070;53.586;9.692;2023-02-28T01:14:24;5.20;76.40
13992;DHT22;7070;53.586;9.692;2023-02-28T01:16:50;5.20;76.30
13992;DHT22;7070;53.586;9.692;2023-02-28T01:19:18;5.20;76.20
13992;DHT22;7070;53.586;9.692;2023-02-28T01:21:45;5.20;76.10
13992;DHT22;7070;53.586;9.692;2023-02-28T01:24:13;5.20;75.90
13992;DHT22;7070;53.586;9.692;2023-02-28T01:26:40;5.20;76.60
13992;DHT22;7070;53.586;9.692;2023-02-28T01:29:06;5.10;75.80
13992;DHT22;7070;53.586;9.692;2023-02-28T01:31:33;5.00;75.50
13992;DHT22;7070;53.586;9.692;2023-02-28T01:34:00;5.00;75.50
13992;DHT22;7070;53.586;9.692;2023-02-28T01:36:27;5.00;75.40
13992;DHT22;7070;53.586;9.692;2023-02-28T01:38:54;4.90;75.30
13992;DHT22;7070;53.586;9.692;2023-02-28T01:41:25;4.90;75.30
13992;DHT22;7070;53.586;9.692;2023-02-28T01:43:55;4.90;75.40
13992;DHT22;7070;53.586;9.692;2023-02-28T01:46:22;4.80;75.30
13992;DHT22;7070;53.586;9.692;2023-02-28T01:48:52;4.70;75.30
13992;DHT22;7070;53.586;9.692;2023-02-28T01:51:23;4.80;75.40
13992;DHT22;7070;53.586;9.692;2023-02-28T01:53:55;4.70;76.10
13992;DHT22;7070;53.586;9.692;2023-02-28T01:56:26;4.70;75.50
13992;DHT22;7070;53.586;9.692;2023-02-28T01:58:55;4.60;75.50
13992;DHT22;7070;53.586;9.692;2023-02-28T02:01:23;4.60;76.30
13992;DHT22;7070;53.586;9.692;2023-02-28T02:03:54;4.70;76.40
13992;DHT22;7070;53.586;9.692;2023-02-28T02:06:22;4.70;75.60
13992;DHT22;7070;53.586;9.692;2023-02-28T02:08:49;4.70;75.70
13992;DHT22;7070;53.586;9.692;2023-02-28T02:11:19;4.70;75.70
13992;DHT22;7070;53.586;9.692;2023-02-28T02:14:09;4.70;75.70
13992;DHT22;7070;53.586;9.692;2023-02-28T02:16:47;4.70;75.80
13992;DHT22;7070;53.586;9.692;2023-02-28T02:19:44;4.70;75.80
13992;DHT22;7070;53.586;9.692;2023-02-28T02:22:47;4.60;75.70
13992;DHT22;7070;53.586;9.692;2023-02-28T02:25:27;4.70;75.90
13992;DHT22;7070;53.586;9.692;2023-02-28T02:28:09;4.60;75.80
13992;DHT22;7070;53.586;9.692;2023-02-28T02:30:51;4.70;76.10
13992;DHT22;7070;53.586;9.692;2023-02-28T02:33:45;4.60;76.00
13992;DHT22;7070;53.586;9.692;2023-02-28T02:36:20;4.60;76.00
13992;DHT22;7070;53.586;9.692;2023-02-28T02:38:51;4.70;76.30
13992;DHT22;7070;53.586;9.692;2023-02-28T02:41:24;4.60;76.10
13992;DHT22;7070;53.586;9.692;2023-02-28T02:43:56;4.70;76.30
13992;DHT22;7070;53.586;9.692;2023-02-28T02:46:28;4.60;76.20
13992;DHT22;7070;53.586;9.692;2023-02-28T02:48:58;4.70;76.30
13992;DHT22;7070;53.586;9.692;2023-02-28T02:51:28;4.70;76.40
13992;DHT22;7070;53.586;9.692;2023-02-28T02:54:02;4.60;76.30
13992;DHT22;7070;53.586;9.692;2023-02-28T02:56:32;4.70;76.30
13992;DHT22;7070;53.586;9.692;2023-02-28T02:59:03;4.70;76.40
13992;DHT22;7070;53.586;9.692;2023-02-28T03:01:31;4.70;76.30
13992;DHT22;7070;53.586;9.692;2023-02-28T03:04:02;4.70;76.30
13992;DHT22;7070;53.586;9.692;2023-02-28T03:06:31;4.80;76.30
13992;DHT22;7070;53.586;9.692;2023-02-28T03:08:59;4.70;76.10
13992;DHT22;7070;53.586;9.692;2023-02-28T03:11:26;4.70;76.10
13992;DHT22;7070;53.586;9.692;2023-02-28T03:14:03;4.80;76.20
13992;DHT22;7070;53.586;9.692;2023-02-28T03:16:41;4.80;76.10
13992;DHT22;7070;53.586;9.692;2023-02-28T03:19:30;4.70;75.90
13992;DHT22;7070;53.586;9.692;2023-02-28T03:22:11;4.70;76.00
13992;DHT22;7070;53.586;9.692;2023-02-28T03:24:45;4.60;75.80
13992;DHT22;7070;53.586;9.692;2023-02-28T03:27:19;4.60;76.50
13992;DHT22;7070;53.586;9.692;2023-02-28T03:29:51;4.60;75.80
13992;DHT22;7070;53.586;9.692;2023-02-28T03:32:25;4.60;75.80
13992;DHT22;7070;53.586;9.692;2023-02-28T03:34:58;4.50;75.60
13992;DHT22;7070;53.586;9.692;2023-02-28T03:37:31;4.40;75.60
13992;DHT22;7070;53.586;9.692;2023-02-28T03:40:04;4.40;75.60
13992;DHT22;7070;53.586;9.692;2023-02-28T03:42:36;4.40;75.70
13992;DHT22;7070;53.586;9.692;2023-02-28T03:45:05;4.30;75.70
13992;DHT22;7070;53.586;9.692;2023-02-28T03:47:38;4.30;75.70
13992;DHT22;7070;53.586;9.692;2023-02-28T03:50:07;4.20;75.50
13992;DHT22;7070;53.586;9.692;2023-02-28T03:52:40;4.20;75.60
13992;DHT22;7070;53.586;9.692;2023-02-28T03:55:11;4.20;75.60
13992;DHT22;7070;53.586;9.692;2023-02-28T03:57:43;4.10;75.40
13992;DHT22;7070;53.586;9.692;2023-02-28T04:00:16;4.10;75.50
13992;DHT22;7070;53.586;9.692;2023-02-28T04:02:45;4.10;75.30
13992;DHT22;7070;53.586;9.692;2023-02-28T04:05:12;4.00;75.00
13992;DHT22;7070;53.586;9.692;2023-02-28T04:07:40;3.90;74.70
13992;DHT22;7070;53.586;9.692;2023-02-28T04:10:08;3.80;74.50
13992;DHT22;7070;53.586;9.692;2023-02-28T04:12:35;3.70;74.20
13992;DHT22;7070;53.586;9.692;2023-02-28T04:15:02;3.60;74.10
13992;DHT22;7070;53.586;9.692;2023-02-28T04:17:28;3.50;74.00
13992;DHT22;7070;53.586;9.692;2023-02-28T04:19:56;3.30;73.70
13992;DHT22;7070;53.586;9.692;2023-02-28T04:22:23;3.10;73.70
13992;DHT22;7070;53.586;9.692;2023-02-28T04:24:53;3.10;73.80
13992;DHT22;7070;53.586;9.692;2023-02-28T04:27:20;2.90;73.80
13992;DHT22;7070;53.586;9.692;2023-02-28T04:29:47;2.70;73.80
13992;DHT22;7070;53.586;9.692;2023-02-28T04:32:14;2.60;73.80
13992;DHT22;7070;53.586;9.692;2023-02-28T04:34:40;2.50;74.00
13992;DHT22;7070;53.586;9.692;2023-02-28T04:37:07;2.40;74.20
13992;DHT22;7070;53.586;9.692;2023-02-28T04:39:35;2.20;74.10
13992;DHT22;7070;53.586;9.692;2023-02-28T04:42:04;2.10;74.20
13992;DHT22;7070;53.586;9.692;2023-02-28T04:44:31;2.00;74.20
13992;DHT22;7070;53.586;9.692;2023-02-28T04:46:58;1.90;74.40
13992;DHT22;7070;53.586;9.692;2023-02-28T04:49:25;1.80;74.50
13992;DHT22;7070;53.586;9.692;2023-02-28T04:51:52;1.70;74.60
13992;DHT22;7070;53.586;9.692;2023-02-28T04:54:19;1.60;74.80
13992;DHT22;7070;53.586;9.692;2023-02-28T04:56:46;1.60;75.10
13992;DHT22;7070;53.586;9.692;2023-02-28T04:59:16;1.60;75.40
13992;DHT22;7070;53.586;9.692;2023-02-28T05:01:46;1.50;75.60
13992;DHT22;7070;53.586;9.692;2023-02-28T05:04:13;1.50;75.70
13992;DHT22;7070;53.586;9.692;2023-02-28T05:06:40;1.50;75.70
13992;DHT22;7070;53.586;9.692;2023-02-28T05:09:07;1.50;75.80
13992;DHT22;7070;53.586;9.692;2023-02-28T05:11:34;1.40;75.70
13992;DHT22;7070;53.586;9.692;2023-02-28T05:14:02;1.30;75.50
13992;DHT22;7070;53.586;9.692;2023-02-28T05:16:31;1.30;75.60
13992;DHT22;7070;53.586;9.692;2023-02-28T05:18:58;1.30;75.60
13992;DHT22;7070;53.586;9.692;2023-02-28T05:21:27;1.20;75.50
13992;DHT22;7070;53.586;9.692;2023-02-28T05:23:55;1.10;75.50
13992;DHT22;7070;53.586;9.692;2023-02-28T05:26:22;1.00;75.60
13992;DHT22;7070;53.586;9.692;2023-02-28T05:28:49;1.00;75.70
13992;DHT22;7070;53.586;9.692;2023-02-28T05:31:16;0.80;75.70
13992;DHT22;7070;53.586;9.692;2023-02-28T05:33:45;0.80;76.00
13992;DHT22;7070;53.586;9.692;2023-02-28T05:36:12;0.70;76.10
13992;DHT22;7070;53.586;9.692;2023-02-28T05:38:39;0.70;76.20
13992;DHT22;7070;53.586;9.692;2023-02-28T05:41:06;0.60;76.40
13992;DHT22;7070;53.586;9.692;2023-02-28T05:43:33;0.50;76.50
13992;DHT22;7070;53.586;9.692;2023-02-28T05:46:03;0.50;76.70
13992;DHT22;7070;53.586;9.692;2023-02-28T05:48:30;0.40;76.80
13992;DHT22;7070;53.586;9.692;2023-02-28T05:50:58;0.40;76.90
13992;DHT22;7070;53.586;9.692;2023-02-28T05:53:25;0.30;77.00
13992;DHT22;7070;53.586;9.692;2023-02-28T05:55:52;0.30;77.30
13992;DHT22;7070;53.586;9.692;2023-02-28T05:58:19;0.20;77.40
13992;DHT22;7070;53.586;9.692;2023-02-28T06:00:47;0.20;78.30
13992;DHT22;7070;53.586;9.692;2023-02-28T06:03:14;0.10;77.50
13992;DHT22;7070;53.586;9.692;2023-02-28T06:05:40;0.00;77.60
13992;DHT22;7070;53.586;9.692;2023-02-28T06:08:09;0.00;77.70
13992;DHT22;7070;53.586;9.692;2023-02-28T06:10:36;0.00;77.90
13992;DHT22;7070;53.586;9.692;2023-02-28T06:13:03;0.00;78.20
13992;DHT22;7070;53.586;9.692;2023-02-28T06:15:30;-0.10;78.20
13992;DHT22;7070;53.586;9.692;2023-02-28T06:17:58;-0.20;78.90
13992;DHT22;7070;53.586;9.692;2023-02-28T06:20:26;-0.20;78.40
13992;DHT22;7070;53.586;9.692;2023-02-28T06:22:55;-0.10;78.60
13992;DHT22;7070;53.586;9.692;2023-02-28T06:25:25;-0.20;78.70
13992;DHT22;7070;53.586;9.692;2023-02-28T06:27:52;-0.30;78.60
13992;DHT22;7070;53.586;9.692;2023-02-28T06:30:19;-0.30;78.80
13992;DHT22;7070;53.586;9.692;2023-02-28T06:32:49;-0.30;79.70
13992;DHT22;7070;53.586;9.692;2023-02-28T06:35:16;-0.30;79.10
13992;DHT22;7070;53.586;9.692;2023-02-28T06:37:43;-0.30;79.20
13992;DHT22;7070;53.586;9.692;2023-02-28T06:40:11;-0.30;79.30
13992;DHT22;7070;53.586;9.692;2023-02-28T06:42:39;-0.30;79.40
13992;DHT22;7070;53.586;9.692;2023-02-28T06:45:07;-0.30;79.40
13992;DHT22;7070;53.586;9.692;2023-02-28T06:47:35;-0.30;79.50
13992;DHT22;7070;53.586;9.692;2023-02-28T06:50:03;-0.30;79.60
13992;DHT22;7070;53.586;9.692;2023-02-28T06:52:30;-0.40;79.60
13992;DHT22;7070;53.586;9.692;2023-02-28T06:54:57;-0.40;79.70
13992;DHT22;7070;53.586;9.692;2023-02-28T06:57:28;-0.30;79.90
13992;DHT22;7070;53.586;9.692;2023-02-28T06:59:58;-0.20;80.00
13992;DHT22;7070;53.586;9.692;2023-02-28T07:02:25;-0.30;80.00
13992;DHT22;7070;53.586;9.692;2023-02-28T07:04:52;-0.20;80.20
13992;DHT22;7070;53.586;9.692;2023-02-28T07:07:19;-0.20;80.20
13992;DHT22;7070;53.586;9.692;2023-02-28T07:09:46;-0.20;80.20
13992;DHT22;7070;53.586;9.692;2023-02-28T07:12:13;-0.20;80.30
13992;DHT22;7070;53.586;9.692;2023-02-28T07:14:40;-0.30;80.30
13992;DHT22;7070;53.586;9.692;2023-02-28T07:17:08;-0.20;80.40
13992;DHT22;7070;53.586;9.692;2023-02-28T07:19:37;-0.10;80.60
13992;DHT22;7070;53.586;9.692;2023-02-28T07:22:04;-0.10;80.70
13992;DHT22;7070;53.586;9.692;2023-02-28T07:24:31;-0.10;80.70
13992;DHT22;7070;53.586;9.692;2023-02-28T07:26:58;0.00;80.90
13992;DHT22;7070;53.586;9.692;2023-02-28T07:29:26;0.10;81.00
13992;DHT22;7070;53.586;9.692;2023-02-28T07:31:53;0.10;81.00
13992;DHT22;7070;53.586;9.692;2023-02-28T07:34:21;0.10;81.10
13992;DHT22;7070;53.586;9.692;2023-02-28T07:36:48;0.20;81.20
13992;DHT22;7070;53.586;9.692;2023-02-28T07:39:19;0.20;81.30
13992;DHT22;7070;53.586;9.692;2023-02-28T07:41:45;0.30;81.40
13992;DHT22;7070;53.586;9.692;2023-02-28T07:44:12;0.30;81.50
13992;DHT22;7070;53.586;9.692;2023-02-28T07:46:39;0.40;81.50
13992;DHT22;7070;53.586;9.692;2023-02-28T07:49:06;0.50;81.70
13992;DHT22;7070;53.586;9.692;2023-02-28T07:51:35;0.50;81.70
13992;DHT22;7070;53.586;9.692;2023-02-28T07:54:02;0.60;81.90
13992;DHT22;7070;53.586;9.692;2023-02-28T07:56:29;0.60;81.90
13992;DHT22;7070;53.586;9.692;2023-02-28T07:58:55;0.70;82.00
13992;DHT22;7070;53.586;9.692;2023-02-28T08:01:22;0.70;82.00
13992;DHT22;7070;53.586;9.692;2023-02-28T08:03:49;0.80;82.20
13992;DHT22;7070;53.586;9.692;2023-02-28T08:06:19;0.90;82.30
13992;DHT22;7070;53.586;9.692;2023-02-28T08:08:48;0.90;82.30
13992;DHT22;7070;53.586;9.692;2023-02-28T08:11:16;1.10;82.50
13992;DHT22;7070;53.586;9.692;2023-02-28T08:13:43;1.10;82.50
13992;DHT22;7070;53.586;9.692;2023-02-28T08:16:12;1.10;82.50
13992;DHT22;7070;53.586;9.692;2023-02-28T08:18:40;1.20;82.40
13992;DHT22;7070;53.586;9.692;2023-02-28T08:21:08;1.20;82.40
13992;DHT22;7070;53.586;9.692;2023-02-28T08:23:35;1.40;82.60
13992;DHT22;7070;53.586;9.692;2023-02-28T08:26:04;1.40;82.70
13992;DHT22;7070;53.586;9.692;2023-02-28T08:28:31;1.40;82.70
13992;DHT22;7070;53.586;9.692;2023-02-28T08:30:58;1.60;82.90
13992;DHT22;7070;53.586;9.692;2023-02-28T08:33:26;1.60;82.90
13992;DHT22;7070;53.586;9.692;2023-02-28T08:35:53;1.60;82.90
13992;DHT22;7070;53.586;9.692;2023-02-28T08:38:21;1.70;83.10
13992;DHT22;7070;53.586;9.692;2023-02-28T08:40:47;1.80;83.30
13992;DHT22;7070;53.586;9.692;2023-02-28T08:43:16;1.90;83.40
13992;DHT22;7070;53.586;9.692;2023-02-28T08:45:43;1.90;83.40
13992;DHT22;7070;53.586;9.692;2023-02-28T08:48:10;2.00;83.50
13992;DHT22;7070;53.586;9.692;2023-02-28T08:50:36;2.10;83.70
13992;DHT22;7070;53.586;9.692;2023-02-28T08:53:03;2.20;84.50
13992;DHT22;7070;53.586;9.692;2023-02-28T08:55:30;2.20;83.80
13992;DHT22;7070;53.586;9.692;2023-02-28T08:57:57;2.30;83.90
13992;DHT22;7070;53.586;9.692;2023-02-28T09:00:26;2.40;84.00
13992;DHT22;7070;53.586;9.692;2023-02-28T09:02:53;2.60;84.30
13992;DHT22;7070;53.586;9.692;2023-02-28T09:05:20;2.60;84.20
13992;DHT22;7070;53.586;9.692;2023-02-28T09:07:47;2.70;84.30
13992;DHT22;7070;53.586;9.692;2023-02-28T09:10:14;2.70;84.40
13992;DHT22;7070;53.586;9.692;2023-02-28T09:12:40;2.80;84.40
13992;DHT22;7070;53.586;9.692;2023-02-28T09:15:08;2.90;84.40
13992;DHT22;7070;53.586;9.692;2023-02-28T09:17:37;2.90;84.40
13992;DHT22;7070;53.586;9.692;2023-02-28T09:20:05;3.10;84.70
13992;DHT22;7070;53.586;9.692;2023-02-28T09:22:32;3.10;84.70
13992;DHT22;7070;53.586;9.692;2023-02-28T09:24:59;3.20;84.80
13992;DHT22;7070;53.586;9.692;2023-02-28T09:27:26;3.30;84.80
13992;DHT22;7070;53.586;9.692;2023-02-28T09:29:53;3.40;85.00
13992;DHT22;7070;53.586;9.692;2023-02-28T09:32:20;3.50;85.10
13992;DHT22;7070;53.586;9.692;2023-02-28T09:34:49;3.60;85.20
13992;DHT22;7070;53.586;9.692;2023-02-28T09:37:16;3.60;85.20
13992;DHT22;7070;53.586;9.692;2023-02-28T09:39:43;3.70;85.30
13992;DHT22;7070;53.586;9.692;2023-02-28T09:42:20;3.80;85.30
13992;DHT22;7070;53.586;9.692;2023-02-28T09:44:48;3.90;85.40
13992;DHT22;7070;53.586;9.692;2023-02-28T09:47:27;3.90;85.40
13992;DHT22;7070;53.586;9.692;2023-02-28T09:49:58;4.10;85.50
13992;DHT22;7070;53.586;9.692;2023-02-28T09:52:29;4.20;85.70
13992;DHT22;7070;53.586;9.692;2023-02-28T09:55:00;4.30;85.80
13992;DHT22;7070;53.586;9.692;2023-02-28T09:57:32;4.40;85.90
13992;DHT22;7070;53.586;9.692;2023-02-28T10:00:07;4.40;85.80
13992;DHT22;7070;53.586;9.692;2023-02-28T10:03:01;4.50;85.90
13992;DHT22;7070;53.586;9.692;2023-02-28T10:05:34;4.60;86.00
13992;DHT22;7070;53.586;9.692;2023-02-28T10:08:10;4.70;86.00
13992;DHT22;7070;53.586;9.692;2023-02-28T10:10:40;4.80;86.00
13992;DHT22;7070;53.586;9.692;2023-02-28T10:13:15;4.80;86.10
13992;DHT22;7070;53.586;9.692;2023-02-28T10:15:45;4.90;86.10
13992;DHT22;7070;53.586;9.692;2023-02-28T10:18:16;5.00;86.20
13992;DHT22;7070;53.586;9.692;2023-02-28T10:20:49;5.10;86.30
13992;DHT22;7070;53.586;9.692;2023-02-28T10:23:20;5.10;86.30
13992;DHT22;7070;53.586;9.692;2023-02-28T10:25:52;5.30;86.40
13992;DHT22;7070;53.586;9.692;2023-02-28T10:28:20;5.30;86.40
13992;DHT22;7070;53.586;9.692;2023-02-28T10:30:48;5.40;86.50
13992;DHT22;7070;53.586;9.692;2023-02-28T10:33:23;5.40;86.40
13992;DHT22;7070;53.586;9.692;2023-02-28T10:35:52;5.60;86.60
13992;DHT22;7070;53.586;9.692;2023-02-28T10:38:21;5.70;86.60
13992;DHT22;7070;53.586;9.692;2023-02-28T10:40:48;5.70;86.60
13992;DHT22;7070;53.586;9.692;2023-02-28T10:43:23;5.80;86.70
13992;DHT22;7070;53.586;9.692;2023-02-28T10:45:58;5.80;86.70
13992;DHT22;7070;53.586;9.692;2023-02-28T10:48:30;5.90;86.70
13992;DHT22;7070;53.586;9.692;2023-02-28T10:51:00;6.00;86.70
13992;DHT22;7070;53.586;9.692;2023-02-28T10:53:38;6.00;86.60
13992;DHT22;7070;53.586;9.692;2023-02-28T10:56:16;6.10;86.60
13992;DHT22;7070;53.586;9.692;2023-02-28T10:58:53;6.10;86.50
13992;DHT22;7070;53.586;9.692;2023-02-28T11:01:22;6.20;87.40
13992;DHT22;7070;53.586;9.692;2023-02-28T11:03:51;6.20;87.40
13992;DHT22;7070;53.586;9.692;2023-02-28T11:06:22;6.30;86.80
13992;DHT22;7070;53.586;9.692;2023-02-28T11:08:52;6.30;86.90
13992;DHT22;7070;53.586;9.692;2023-02-28T11:11:20;6.40;86.90
13992;DHT22;7070;53.586;9.692;2023-02-28T11:13:52;6.40;86.90
13992;DHT22;7070;53.586;9.692;2023-02-28T11:16:20;6.50;86.90
13992;DHT22;7070;53.586;9.692;2023-02-28T11:18:49;6.60;87.00
13992;DHT22;7070;53.586;9.692;2023-02-28T11:21:22;6.70;86.90
13992;DHT22;7070;53.586;9.692;2023-02-28T11:24:00;6.70;86.90
13992;DHT22;7070;53.586;9.692;2023-02-28T11:26:39;6.70;86.90
13992;DHT22;7070;53.586;9.692;2023-02-28T11:29:17;6.70;86.80
13992;DHT22;7070;53.586;9.692;2023-02-28T11:32:01;6.80;86.90
13992;DHT22;7070;53.586;9.692;2023-02-28T11:34:29;6.80;86.90
13992;DHT22;7070;53.586;9.692;2023-02-28T11:36:59;6.90;86.90
13992;DHT22;7070;53.586;9.692;2023-02-28T11:39:31;7.00;87.00
13992;DHT22;7070;53.586;9.692;2023-02-28T11:42:10;7.00;86.90
13992;DHT22;7070;53.586;9.692;2023-02-28T11:44:50;7.00;86.90
13992;DHT22;7070;53.586;9.692;2023-02-28T11:47:28;7.10;86.90
13992;DHT22;7070;53.586;9.692;2023-02-28T11:50:08;7.10;86.80
13992;DHT22;7070;53.586;9.692;2023-02-28T11:52:48;7.20;86.90
13992;DHT22;7070;53.586;9.692;2023-02-28T11:55:18;7.20;86.90
13992;DHT22;7070;53.586;9.692;2023-02-28T11:58:13;7.30;87.10
13992;DHT22;7070;53.586;9.692;2023-02-28T12:00:54;7.30;87.00
13992;DHT22;7070;53.586;9.692;2023-02-28T12:03:28;7.30;86.80
13992;DHT22;7070;53.586;9.692;2023-02-28T12:06:08;7.30;86.60
13992;DHT22;7070;53.586;9.692;2023-02-28T12:08:49;7.30;86.50
13992;DHT22;7070;53.586;9.692;2023-02-28T12:11:27;7.40;86.50
13992;DHT22;7070;53.586;9.692;2023-02-28T12:14:13;7.40;86.70
13992;DHT22;7070;53.586;9.692;2023-02-28T12:16:58;7.50;86.70
13992;DHT22;7070;53.586;9.692;2023-02-28T12:19:32;7.40;86.40
13992;DHT22;7070;53.586;9.692;2023-02-28T12:22:16;7.50;86.30
13992;DHT22;7070;53.586;9.692;2023-02-28T12:27:52;7.60;86.00
13992;DHT22;7070;53.586;9.692;2023-02-28T12:30:23;7.60;85.80
13992;DHT22;7070;53.586;9.692;2023-02-28T12:32:54;7.60;85.70
13992;DHT22;7070;53.586;9.692;2023-02-28T12:35:25;7.60;85.50
13992;DHT22;7070;53.586;9.692;2023-02-28T12:37:56;7.60;85.30
13992;DHT22;7070;53.586;9.692;2023-02-28T12:40:27;7.70;85.00
13992;DHT22;7070;53.586;9.692;2023-02-28T12:42:59;7.70;84.60
13992;DHT22;7070;53.586;9.692;2023-02-28T12:45:39;7.70;84.40
13992;DHT22;7070;53.586;9.692;2023-02-28T12:48:10;7.70;84.10
13992;DHT22;7070;53.586;9.692;2023-02-28T12:50:39;7.70;84.00
13992;DHT22;7070;53.586;9.692;2023-02-28T12:53:09;7.70;83.70
13992;DHT22;7070;53.586;9.692;2023-02-28T12:55:41;7.70;84.30
13992;DHT22;7070;53.586;9.692;2023-02-28T12:58:16;7.80;83.60
13992;DHT22;7070;53.586;9.692;2023-02-28T13:01:03;7.80;83.40
13992;DHT22;7070;53.586;9.692;2023-02-28T13:06:45;7.80;83.10
13992;DHT22;7070;53.586;9.692;2023-02-28T13:09:18;7.80;82.90
13992;DHT22;7070;53.586;9.692;2023-02-28T13:11:46;7.80;82.70
13992;DHT22;7070;53.586;9.692;2023-02-28T13:14:23;7.80;82.50
13992;DHT22;7070;53.586;9.692;2023-02-28T13:16:57;7.80;82.30
13992;DHT22;7070;53.586;9.692;2023-02-28T13:19:27;7.80;82.00
13992;DHT22;7070;53.586;9.692;2023-02-28T13:21:56;7.80;81.70
13992;DHT22;7070;53.586;9.692;2023-02-28T13:24:40;7.90;81.50
13992;DHT22;7070;53.586;9.692;2023-02-28T13:29:55;7.80;81.70
13992;DHT22;7070;53.586;9.692;2023-02-28T13:32:35;7.80;80.80
13992;DHT22;7070;53.586;9.692;2023-02-28T13:35:45;7.90;80.60
13992;DHT22;7070;53.586;9.692;2023-02-28T13:44:05;7.80;80.10
13992;DHT22;7070;53.586;9.692;2023-02-28T13:46:36;7.80;79.90
13992;DHT22;7070;53.586;9.692;2023-02-28T13:49:19;7.80;79.90
13992;DHT22;7070;53.586;9.692;2023-02-28T13:51:47;7.80;80.00
13992;DHT22;7070;53.586;9.692;2023-02-28T13:54:26;7.80;80.00
13992;DHT22;7070;53.586;9.692;2023-02-28T13:57:07;7.80;80.10
13992;DHT22;7070;53.586;9.692;2023-02-28T13:59:46;7.80;80.00
13992;DHT22;7070;53.586;9.692;2023-02-28T14:02:40;7.80;79.80
13992;DHT22;7070;53.586;9.692;2023-02-28T14:05:14;7.80;80.00
13992;DHT22;7070;53.586;9.692;2023-02-28T14:07:45;7.90;79.80
13992;DHT22;7070;53.586;9.692;2023-02-28T14:10:26;7.90;79.60
13992;DHT22;7070;53.586;9.692;2023-02-28T14:13:11;7.80;79.20
13992;DHT22;7070;53.586;9.692;2023-02-28T14:15:46;7.80;79.30
13992;DHT22;7070;53.586;9.692;2023-02-28T14:18:29;7.80;79.10
13992;DHT22;7070;53.586;9.692;2023-02-28T14:21:02;7.80;79.10
13992;DHT22;7070;53.586;9.692;2023-02-28T14:23:44;7.80;78.70
13992;DHT22;7070;53.586;9.692;2023-02-28T14:26:25;7.80;78.40
13992;DHT22;7070;53.586;9.692;2023-02-28T14:29:08;7.80;78.20
13992;DHT22;7070;53.586;9.692;2023-02-28T14:31:44;7.80;78.00
13992;DHT22;7070;53.586;9.692;2023-02-28T14:34:31;7.80;77.80
13992;DHT22;7070;53.586;9.692;2023-02-28T14:37:02;7.80;77.80
13992;DHT22;7070;53.586;9.692;2023-02-28T14:39:30;7.70;77.70
13992;DHT22;7070;53.586;9.692;2023-02-28T14:41:58;7.70;77.80
13992;DHT22;7070;53.586;9.692;2023-02-28T14:44:29;7.70;78.00
13992;DHT22;7070;53.586;9.692;2023-02-28T14:46:57;7.70;78.90
13992;DHT22;7070;53.586;9.692;2023-02-28T14:49:27;7.70;78.30
13992;DHT22;7070;53.586;9.692;2023-02-28T14:52:07;7.60;78.50
13992;DHT22;7070;53.586;9.692;2023-02-28T14:54:40;7.70;79.00
13992;DHT22;7070;53.586;9.692;2023-02-28T14:57:21;7.70;78.90
13992;DHT22;7070;53.586;9.692;2023-02-28T14:59:57;7.60;79.00
13992;DHT22;7070;53.586;9.692;2023-02-28T15:02:29;7.60;78.80
13992;DHT22;7070;53.586;9.692;2023-02-28T15:04:59;7.60;78.60
13992;DHT22;7070;53.586;9.692;2023-02-28T15:07:27;7.50;78.50
13992;DHT22;7070;53.586;9.692;2023-02-28T15:10:16;7.50;78.50
13992;DHT22;7070;53.586;9.692;2023-02-28T15:12:49;7.50;78.70
13992;DHT22;7070;53.586;9.692;2023-02-28T15:15:18;7.50;78.60
13992;DHT22;7070;53.586;9.692;2023-02-28T15:17:49;7.50;78.70
13992;DHT22;7070;53.586;9.692;2023-02-28T15:20:19;7.40;78.70
13992;DHT22;7070;53.586;9.692;2023-02-28T15:22:47;7.40;78.80
13992;DHT22;7070;53.586;9.692;2023-02-28T15:25:19;7.30;78.80
13992;DHT22;7070;53.586;9.692;2023-02-28T15:27:48;7.30;78.80
13992;DHT22;7070;53.586;9.692;2023-02-28T15:30:18;7.30;78.80
13992;DHT22;7070;53.586;9.692;2023-02-28T15:33:02;7.30;78.60
13992;DHT22;7070;53.586;9.692;2023-02-28T15:35:32;7.20;78.50
13992;DHT22;7070;53.586;9.692;2023-02-28T15:38:01;7.20;78.60
13992;DHT22;7070;53.586;9.692;2023-02-28T15:40:31;7.20;78.70
13992;DHT22;7070;53.586;9.692;2023-02-28T15:43:03;7.10;78.60
13992;DHT22;7070;53.586;9.692;2023-02-28T15:45:36;7.10;78.80
13992;DHT22;7070;53.586;9.692;2023-02-28T15:48:15;7.00;78.80
13992;DHT22;7070;53.586;9.692;2023-02-28T15:50:44;7.00;78.90
13992;DHT22;7070;53.586;9.692;2023-02-28T15:53:14;6.90;79.00
13992;DHT22;7070;53.586;9.692;2023-02-28T15:55:42;6.90;79.10
13992;DHT22;7070;53.586;9.692;2023-02-28T15:58:11;6.90;79.10
13992;DHT22;7070;53.586;9.692;2023-02-28T16:00:39;6.80;79.10
13992;DHT22;7070;53.586;9.692;2023-02-28T16:03:23;6.70;79.80
13992;DHT22;7070;53.586;9.692;2023-02-28T16:06:12;6.60;79.00
13992;DHT22;7070;53.586;9.692;2023-02-28T16:08:48;6.50;79.10
13992;DHT22;7070;53.586;9.692;2023-02-28T16:11:17;6.50;79.20
13992;DHT22;7070;53.586;9.692;2023-02-28T16:13:44;6.40;79.20
13992;DHT22;7070;53.586;9.692;2023-02-28T16:16:15;6.30;79.20
13992;DHT22;7070;53.586;9.692;2023-02-28T16:18:42;6.30;79.20
13992;DHT22;7070;53.586;9.692;2023-02-28T16:21:10;6.20;79.20
13992;DHT22;7070;53.586;9.692;2023-02-28T16:23:37;6.10;79.10
13992;DHT22;7070;53.586;9.692;2023-02-28T16:26:05;6.00;79.20
13992;DHT22;7070;53.586;9.692;2023-02-28T16:28:35;5.90;79.20
13992;DHT22;7070;53.586;9.692;2023-02-28T16:31:05;5.90;79.40
13992;DHT22;7070;53.586;9.692;2023-02-28T16:33:33;5.80;79.40
13992;DHT22;7070;53.586;9.692;2023-02-28T16:36:00;5.70;79.70
13992;DHT22;7070;53.586;9.692;2023-02-28T16:38:28;5.60;79.80